Time;durP1;ratioP1;P1;durP2;ratioP2;P2;SDS_P1;SDS_P2;PMS_P1;PMS_P2;Temp;Humidity;BMP_temperature;BMP_pressure;BME280_temperature;BME280_humidity;BME280_pressure;Samples;Min_cycle;Max_cycle;Signal;HPM_P1;HPM_P2
2022/08/06 00:02:20;;;;;;;;;;;17.30;71.60;;;;;;4970535;28;19930;-82
2022/08/06 00:04:49;;;;;;;;;;;17.30;71.60;;;;;;4969800;28;19926;-84
2022/08/06 00:07:17;;;;;;;;;;;17.30;71.40;;;;;;4960399;28;19952;-81
2022/08/06 00:09:52;;;;;;;;;;;17.20;72.20;;;;;;4945643;28;19927;-82
2022/08/06 00:12:29;;;;;;;;;;;17.20;72.10;;;;;;4967177;28;19929;-81
2022/08/06 00:15:00;;;;;;;;;;;17.20;72.80;;;;;;4960201;28;19930;-83
2022/08/06 00:17:39;;;;;;;;;;;17.20;73.00;;;;;;4973837;28;19926;-81
2022/08/06 00:20:08;;;;;;;;;;;17.20;72.60;;;;;;4971354;28;19930;-81
2022/08/06 00:22:37;;;;;;;;;;;17.20;73.00;;;;;;4971877;28;19937;-82
2022/08/06 00:25:08;;;;;;;;;;;17.10;73.90;;;;;;4969613;28;19937;-82
2022/08/06 00:27:39;;;;;;;;;;;17.10;73.30;;;;;;4969765;28;20293;-81
2022/08/06 00:30:09;;;;;;;;;;;17.60;74.20;;;;;;4949735;29;19926;-82
2022/08/06 00:32:49;;;;;;;;;;;17.10;73.60;;;;;;4970320;28;19934;-81
2022/08/06 00:35:21;;;;;;;;;;;17.00;73.80;;;;;;4970022;28;19937;-82
2022/08/06 00:37:56;;;;;;;;;;;17.00;74.20;;;;;;4975198;28;20281;-80
2022/08/06 00:40:27;;;;;;;;;;;17.00;74.70;;;;;;4944673;28;19931;-80
2022/08/06 00:43:00;;;;;;;;;;;16.90;74.90;;;;;;4954674;28;19930;-84
2022/08/06 00:45:33;;;;;;;;;;;16.80;75.40;;;;;;4952956;28;19929;-81
2022/08/06 00:48:05;;;;;;;;;;;16.80;74.80;;;;;;4971711;28;20333;-80
2022/08/06 00:50:34;;;;;;;;;;;16.70;74.70;;;;;;4973707;28;19926;-81
2022/08/06 00:53:05;;;;;;;;;;;16.70;74.70;;;;;;4966207;28;19926;-81
2022/08/06 00:55:36;;;;;;;;;;;16.70;75.40;;;;;;4970616;28;19930;-81
2022/08/06 00:58:24;;;;;;;;;;;16.60;75.90;;;;;;4965571;28;20374;-81
2022/08/06 01:00:53;;;;;;;;;;;16.60;76.20;;;;;;4970870;28;20404;-82
2022/08/06 01:03:21;;;;;;;;;;;16.50;76.00;;;;;;4972051;28;20386;-81
2022/08/06 01:06:08;;;;;;;;;;;16.50;75.50;;;;;;4970384;28;19926;-81
2022/08/06 01:08:55;;;;;;;;;;;16.40;75.80;;;;;;4958437;28;19926;-82
2022/08/06 01:11:24;;;;;;;;;;;16.40;75.60;;;;;;4973411;28;19961;-81
2022/08/06 01:13:53;;;;;;;;;;;16.40;75.90;;;;;;4981057;28;19926;-81
2022/08/06 01:16:40;;;;;;;;;;;16.20;76.70;;;;;;4974131;28;20021;-82
2022/08/06 01:19:24;;;;;;;;;;;16.20;75.90;;;;;;4959397;28;19926;-81
2022/08/06 01:22:20;;;;;;;;;;;16.10;76.60;;;;;;4967915;28;20418;-82
2022/08/06 01:24:59;;;;;;;;;;;16.10;76.60;;;;;;4968618;28;20449;-81
2022/08/06 01:27:38;;;;;;;;;;;16.10;77.00;;;;;;4969508;28;19930;-81
2022/08/06 01:30:14;;;;;;;;;;;16.00;76.70;;;;;;4976431;28;19933;-83
2022/08/06 01:32:53;;;;;;;;;;;16.00;76.90;;;;;;4965367;28;19930;-81
2022/08/06 01:35:27;;;;;;;;;;;16.00;77.10;;;;;;4975569;28;20492;-83
2022/08/06 01:38:23;;;;;;;;;;;15.90;77.20;;;;;;4978886;28;19926;-82
2022/08/06 01:40:51;;;;;;;;;;;15.90;77.80;;;;;;4975748;28;19930;-85
2022/08/06 01:43:20;;;;;;;;;;;15.80;77.00;;;;;;4957098;28;19933;-83
2022/08/06 01:45:51;;;;;;;;;;;15.80;77.10;;;;;;4974393;28;19933;-82
2022/08/06 01:48:23;;;;;;;;;;;15.80;77.70;;;;;;4976028;28;20077;-80
2022/08/06 01:50:57;;;;;;;;;;;15.90;78.60;;;;;;4972836;28;19926;-81
2022/08/06 01:53:33;;;;;;;;;;;15.70;77.50;;;;;;4973883;28;19926;-82
2022/08/06 01:56:22;;;;;;;;;;;15.70;77.70;;;;;;4979993;28;19926;-81
2022/08/06 01:58:59;;;;;;;;;;;15.70;78.20;;;;;;4958742;28;19927;-82
2022/08/06 02:01:32;;;;;;;;;;;15.70;78.00;;;;;;4972539;28;19934;-82
2022/08/06 02:04:22;;;;;;;;;;;15.80;78.00;;;;;;4973777;28;19941;-82
2022/08/06 02:06:51;;;;;;;;;;;15.60;79.40;;;;;;4973157;28;19926;-85
2022/08/06 02:09:20;;;;;;;;;;;15.60;78.40;;;;;;4983187;28;19936;-82
2022/08/06 02:12:06;;;;;;;;;;;15.60;78.50;;;;;;4973693;28;19933;-82
2022/08/06 02:14:37;;;;;;;;;;;15.50;79.70;;;;;;4971556;28;19926;-81
2022/08/06 02:17:13;;;;;;;;;;;15.50;79.40;;;;;;4956883;28;19926;-81
2022/08/06 02:19:44;;;;;;;;;;;15.40;78.90;;;;;;4973650;28;19926;-81
2022/08/06 02:22:31;;;;;;;;;;;15.40;78.70;;;;;;4972398;28;19930;-82
2022/08/06 02:25:01;;;;;;;;;;;15.30;79.70;;;;;;4974750;28;19942;-81
2022/08/06 02:27:43;;;;;;;;;;;15.30;79.90;;;;;;4956945;28;19926;-81
2022/08/06 02:30:28;;;;;;;;;;;15.20;79.90;;;;;;4975236;28;20297;-81
2022/08/06 02:33:04;;;;;;;;;;;15.20;80.40;;;;;;4982465;28;19933;-81
2022/08/06 02:35:42;;;;;;;;;;;15.20;79.80;;;;;;4971818;28;19937;-81
2022/08/06 02:38:13;;;;;;;;;;;15.20;80.00;;;;;;4956411;28;19926;-81
2022/08/06 02:40:43;;;;;;;;;;;15.20;79.70;;;;;;4973975;28;19926;-81
2022/08/06 02:43:15;;;;;;;;;;;15.10;79.80;;;;;;4983317;28;19930;-85
2022/08/06 02:45:58;;;;;;;;;;;15.10;79.60;;;;;;4983438;28;20377;-82
2022/08/06 02:48:28;;;;;;;;;;;15.10;80.70;;;;;;4966324;28;19933;-85
2022/08/06 02:51:01;;;;;;;;;;;15.00;79.60;;;;;;4963158;28;20002;-85
2022/08/06 02:53:39;;;;;;;;;;;15.00;80.20;;;;;;4966273;28;19933;-86
2022/08/06 02:56:26;;;;;;;;;;;15.10;80.00;;;;;;4963192;28;19933;-91
2022/08/06 02:58:55;;;;;;;;;;;15.00;80.00;;;;;;4973332;28;19930;-90
2022/08/06 03:01:29;;;;;;;;;;;15.00;80.10;;;;;;4975872;28;20306;-83
2022/08/06 03:04:11;;;;;;;;;;;15.00;80.60;;;;;;4975989;28;19933;-81
2022/08/06 03:06:40;;;;;;;;;;;15.00;79.90;;;;;;4972951;28;19933;-85
2022/08/06 03:09:10;;;;;;;;;;;14.90;80.20;;;;;;4985225;28;19974;-84
2022/08/06 03:11:44;;;;;;;;;;;14.90;80.10;;;;;;4979412;28;19934;-86
2022/08/06 03:14:15;;;;;;;;;;;14.90;80.70;;;;;;4983023;28;19934;-87
2022/08/06 03:17:03;;;;;;;;;;;14.90;80.30;;;;;;4974153;28;19930;-87
2022/08/06 03:19:31;;;;;;;;;;;14.80;80.20;;;;;;4974324;28;19926;-89
2022/08/06 03:22:19;;;;;;;;;;;15.00;80.70;;;;;;4971732;28;19933;-84
2022/08/06 03:25:08;;;;;;;;;;;16.20;82.20;;;;;;4975912;28;19926;-88
2022/08/06 03:27:36;;;;;;;;;;;14.70;81.50;;;;;;4982640;28;19927;-86
2022/08/06 03:30:17;;;;;;;;;;;14.40;81.70;;;;;;4982539;28;19914;-84
2022/08/06 03:33:00;;;;;;;;;;;14.60;81.90;;;;;;4987284;28;19926;-85
2022/08/06 03:35:48;;;;;;;;;;;14.60;82.10;;;;;;4984508;28;20310;-88
2022/08/06 03:38:18;;;;;;;;;;;14.60;82.00;;;;;;4985057;28;19926;-87
2022/08/06 03:40:46;;;;;;;;;;;14.50;82.50;;;;;;4980375;28;19926;-84
2022/08/06 03:43:16;;;;;;;;;;;14.50;82.20;;;;;;4977018;28;19937;-86
2022/08/06 03:45:59;;;;;;;;;;;14.50;82.40;;;;;;4990231;28;19941;-84
2022/08/06 03:48:29;;;;;;;;;;;14.50;82.90;;;;;;4977331;28;19937;-87
2022/08/06 03:51:11;;;;;;;;;;;14.40;83.20;;;;;;4958113;28;19926;-84
2022/08/06 03:53:40;;;;;;;;;;;14.40;83.10;;;;;;4972574;28;20377;-85
2022/08/06 03:56:15;;;;;;;;;;;14.30;82.90;;;;;;4972757;28;19937;-83
2022/08/06 03:58:44;;;;;;;;;;;14.30;82.70;;;;;;4971251;28;20306;-82
2022/08/06 04:01:15;;;;;;;;;;;14.40;82.70;;;;;;4954293;28;19937;-82
2022/08/06 04:03:47;;;;;;;;;;;14.30;82.60;;;;;;4938145;28;19925;-82
2022/08/06 04:06:17;;;;;;;;;;;14.30;83.60;;;;;;4974814;28;19936;-81
2022/08/06 04:08:48;;;;;;;;;;;14.30;83.20;;;;;;4974378;28;19926;-81
2022/08/06 04:11:16;;;;;;;;;;;14.90;83.50;;;;;;4977143;28;19956;-80
2022/08/06 04:14:04;;;;;;;;;;;14.30;83.10;;;;;;4977247;28;20505;-81
2022/08/06 04:16:36;;;;;;;;;;;14.20;83.20;;;;;;4968740;28;19934;-84
2022/08/06 04:19:05;;;;;;;;;;;14.20;84.40;;;;;;4956307;28;20404;-80
2022/08/06 04:21:39;;;;;;;;;;;14.10;83.60;;;;;;4968276;28;19930;-80
2022/08/06 04:24:26;;;;;;;;;;;14.10;83.20;;;;;;4969775;28;20401;-81
2022/08/06 04:27:03;;;;;;;;;;;14.10;84.10;;;;;;4970426;28;20333;-81
2022/08/06 04:29:39;;;;;;;;;;;14.00;84.20;;;;;;4954253;28;19926;-81
2022/08/06 04:32:25;;;;;;;;;;;15.50;85.20;;;;;;4969623;28;19926;-82
2022/08/06 04:34:58;;;;;;;;;;;13.80;84.30;;;;;;4976653;28;19949;-81
2022/08/06 04:37:47;;;;;;;;;;;14.00;84.20;;;;;;4970774;28;19926;-81
2022/08/06 04:40:19;;;;;;;;;;;13.90;84.10;;;;;;4985450;28;20369;-82
2022/08/06 04:43:06;;;;;;;;;;;13.90;84.10;;;;;;4979486;28;19934;-80
2022/08/06 04:45:34;;;;;;;;;;;13.90;84.70;;;;;;4977391;28;19938;-80
2022/08/06 04:48:23;;;;;;;;;;;13.90;84.60;;;;;;4975457;28;19933;-81
2022/08/06 04:50:51;;;;;;;;;;;13.90;84.70;;;;;;4954585;28;20530;-82
2022/08/06 04:53:21;;;;;;;;;;;13.90;84.60;;;;;;4971579;28;19933;-80
2022/08/06 04:56:09;;;;;;;;;;;13.90;84.20;;;;;;4969982;28;19926;-81
2022/08/06 04:58:41;;;;;;;;;;;13.80;84.60;;;;;;4971482;28;20282;-80
2022/08/06 05:01:09;;;;;;;;;;;13.90;85.00;;;;;;4971038;28;20378;-82
2022/08/06 05:03:39;;;;;;;;;;;13.80;85.50;;;;;;4970753;28;19926;-81
2022/08/06 05:06:45;;;;;;;;;;;13.80;84.90;;;;;;4970189;28;20306;-81
2022/08/06 05:09:16;;;;;;;;;;;13.80;85.50;;;;;;4968265;28;20305;-81
2022/08/06 05:12:03;;;;;;;;;;;13.80;85.30;;;;;;4971159;28;19927;-82
2022/08/06 05:14:43;;;;;;;;;;;13.70;86.00;;;;;;4975602;28;20362;-82
2022/08/06 05:17:13;;;;;;;;;;;13.70;85.60;;;;;;4968472;28;19933;-81
2022/08/06 05:19:46;;;;;;;;;;;13.70;85.90;;;;;;4952572;28;20297;-81
2022/08/06 05:22:16;;;;;;;;;;;13.70;87.30;;;;;;4968236;28;20037;-82
2022/08/06 05:25:04;;;;;;;;;;;13.70;86.90;;;;;;4969128;28;20245;-81
2022/08/06 05:27:45;;;;;;;;;;;13.70;86.30;;;;;;4967498;28;20389;-82
2022/08/06 05:30:33;;;;;;;;;;;13.70;86.70;;;;;;4968125;28;19941;-81
2022/08/06 05:33:01;;;;;;;;;;;13.80;86.20;;;;;;4967814;28;19933;-81
2022/08/06 05:35:28;;;;;;;;;;;13.80;86.50;;;;;;4966758;28;19926;-80
2022/08/06 05:38:08;;;;;;;;;;;13.80;86.30;;;;;;4968964;28;19930;-81
2022/08/06 05:40:38;;;;;;;;;;;13.90;86.50;;;;;;4968592;28;19930;-81
2022/08/06 05:43:23;;;;;;;;;;;13.90;86.60;;;;;;4967859;28;19926;-80
2022/08/06 05:46:13;;;;;;;;;;;14.00;87.30;;;;;;4968511;28;19934;-81
2022/08/06 05:48:50;;;;;;;;;;;14.00;86.90;;;;;;4966269;28;20409;-81
2022/08/06 05:51:23;;;;;;;;;;;14.00;86.90;;;;;;4967159;28;19933;-81
2022/08/06 05:54:17;;;;;;;;;;;14.10;87.20;;;;;;4965968;28;19933;-80
2022/08/06 05:56:46;;;;;;;;;;;14.10;86.60;;;;;;4966178;28;20458;-81
2022/08/06 05:59:28;;;;;;;;;;;14.10;86.60;;;;;;4966326;28;19933;-81
2022/08/06 06:02:18;;;;;;;;;;;14.20;86.70;;;;;;4968318;28;19934;-81
2022/08/06 06:04:48;;;;;;;;;;;14.30;86.40;;;;;;4970453;28;19930;-81
2022/08/06 06:07:36;;;;;;;;;;;14.20;86.50;;;;;;4967647;28;19934;-82
2022/08/06 06:10:24;;;;;;;;;;;14.30;87.30;;;;;;4960184;28;20405;-83
2022/08/06 06:12:55;;;;;;;;;;;14.30;86.80;;;;;;4965956;28;19931;-81
2022/08/06 06:15:22;;;;;;;;;;;14.40;86.90;;;;;;4967879;28;20433;-81
2022/08/06 06:18:30;;;;;;;;;;;14.50;87.10;;;;;;4969350;28;20477;-81
2022/08/06 06:21:04;;;;;;;;;;;14.50;86.70;;;;;;4958213;28;19926;-81
2022/08/06 06:23:45;;;;;;;;;;;14.60;87.20;;;;;;4966753;28;19926;-84
2022/08/06 06:26:12;;;;;;;;;;;14.60;86.50;;;;;;4971459;28;19930;-89
2022/08/06 06:29:18;;;;;;;;;;;14.70;86.70;;;;;;4971522;28;19925;-80
2022/08/06 06:32:24;;;;;;;;;;;14.70;87.10;;;;;;4955546;28;19949;-81
2022/08/06 06:35:02;;;;;;;;;;;14.80;86.40;;;;;;4964021;28;19926;-81
2022/08/06 06:37:56;;;;;;;;;;;14.80;86.80;;;;;;4975453;28;19952;-81
2022/08/06 06:40:25;;;;;;;;;;;14.90;86.50;;;;;;4969718;28;19941;-82
2022/08/06 06:43:05;;;;;;;;;;;14.70;86.20;;;;;;4971228;28;20140;-82
2022/08/06 06:45:33;;;;;;;;;;;15.00;86.50;;;;;;4970497;28;20298;-82
2022/08/06 06:48:37;;;;;;;;;;;13.90;85.70;;;;;;4973128;28;19926;-81
2022/08/06 06:51:12;;;;;;;;;;;15.10;87.00;;;;;;4955738;28;20212;-81
2022/08/06 06:54:00;;;;;;;;;;;15.10;87.10;;;;;;4973630;28;19933;-81
2022/08/06 06:56:36;;;;;;;;;;;15.20;86.60;;;;;;4971302;28;20425;-81
2022/08/06 06:59:12;;;;;;;;;;;15.30;85.80;;;;;;4966606;28;19930;-81
2022/08/06 07:01:44;;;;;;;;;;;15.50;86.70;;;;;;4970297;28;19937;-81
2022/08/06 07:04:24;;;;;;;;;;;15.40;86.10;;;;;;4970294;28;19949;-80
2022/08/06 07:06:57;;;;;;;;;;;15.40;86.70;;;;;;4972418;28;20414;-82
2022/08/06 07:09:29;;;;;;;;;;;15.50;86.70;;;;;;4977508;28;20207;-81
2022/08/06 07:12:09;;;;;;;;;;;15.50;85.70;;;;;;4975002;28;19933;-81
2022/08/06 07:14:48;;;;;;;;;;;15.60;86.00;;;;;;4971961;28;20528;-81
2022/08/06 07:17:26;;;;;;;;;;;15.60;85.60;;;;;;4960122;28;19941;-85
2022/08/06 07:20:24;;;;;;;;;;;15.60;86.00;;;;;;4949922;28;19930;-81
2022/08/06 07:22:59;;;;;;;;;;;15.70;85.70;;;;;;4964978;28;20417;-83
2022/08/06 07:25:49;;;;;;;;;;;15.70;85.90;;;;;;4937303;28;20277;-81
2022/08/06 07:28:25;;;;;;;;;;;15.80;85.80;;;;;;4964753;28;19926;-84
2022/08/06 07:30:56;;;;;;;;;;;15.90;85.50;;;;;;4964472;28;21240;-81
2022/08/06 07:33:37;;;;;;;;;;;16.00;85.30;;;;;;4962137;28;19926;-84
2022/08/06 07:36:31;;;;;;;;;;;16.10;85.40;;;;;;4964930;28;19934;-81
2022/08/06 07:39:11;;;;;;;;;;;16.10;85.60;;;;;;4968480;28;19930;-82
2022/08/06 07:41:43;;;;;;;;;;;16.20;85.00;;;;;;4986621;28;20476;-81
2022/08/06 07:44:34;;;;;;;;;;;16.30;85.00;;;;;;4957987;28;19934;-80
2022/08/06 07:47:29;;;;;;;;;;;16.30;84.40;;;;;;4969398;28;19934;-81
2022/08/06 07:50:17;;;;;;;;;;;16.40;84.40;;;;;;4969288;28;20047;-82
2022/08/06 07:52:54;;;;;;;;;;;16.50;84.70;;;;;;4967162;28;20378;-86
2022/08/06 07:55:26;;;;;;;;;;;16.50;84.40;;;;;;4966206;28;19933;-80
2022/08/06 07:58:10;;;;;;;;;;;16.60;83.90;;;;;;4964127;28;19934;-81
2022/08/06 08:00:43;;;;;;;;;;;16.60;83.80;;;;;;4962716;28;19945;-81
2022/08/06 08:06:24;;;;;;;;;;;16.70;83.60;;;;;;4945873;28;19930;-82
2022/08/06 08:09:15;;;;;;;;;;;16.80;83.80;;;;;;4961714;28;20289;-81
2022/08/06 08:11:56;;;;;;;;;;;16.80;83.70;;;;;;4959502;28;20432;-84
2022/08/06 08:14:46;;;;;;;;;;;16.90;83.50;;;;;;4961521;28;19934;-82
2022/08/06 08:17:17;;;;;;;;;;;17.00;83.40;;;;;;4959757;28;20107;-83
2022/08/06 08:20:03;;;;;;;;;;;17.00;83.20;;;;;;4934291;28;19930;-84
2022/08/06 08:22:44;;;;;;;;;;;17.10;83.10;;;;;;4950813;28;19934;-87
2022/08/06 08:25:17;;;;;;;;;;;17.20;82.90;;;;;;4962981;28;20404;-83
2022/08/06 08:28:05;;;;;;;;;;;17.20;82.40;;;;;;4967208;28;19933;-88
2022/08/06 08:30:42;;;;;;;;;;;17.30;82.10;;;;;;4953398;28;19926;-82
2022/08/06 08:33:10;;;;;;;;;;;17.40;81.80;;;;;;4978660;28;19934;-88
2022/08/06 08:35:48;;;;;;;;;;;17.50;81.60;;;;;;4968907;28;19931;-83
2022/08/06 08:38:27;;;;;;;;;;;17.50;81.60;;;;;;4965065;28;19934;-88
2022/08/06 08:40:58;;;;;;;;;;;17.70;81.30;;;;;;4963235;28;19930;-88
2022/08/06 08:43:35;;;;;;;;;;;17.70;81.10;;;;;;4964833;28;19934;-90
2022/08/06 08:46:26;;;;;;;;;;;17.80;80.90;;;;;;4961146;28;19930;-87
2022/08/06 08:49:00;;;;;;;;;;;17.90;80.70;;;;;;4964235;28;19934;-88
2022/08/06 08:51:28;;;;;;;;;;;18.00;80.30;;;;;;4966387;28;19938;-86
2022/08/06 08:53:58;;;;;;;;;;;18.10;80.20;;;;;;4960835;28;19946;-86
2022/08/06 08:56:26;;;;;;;;;;;18.10;79.90;;;;;;4961337;28;19926;-84
2022/08/06 08:59:14;;;;;;;;;;;18.00;79.60;;;;;;4960206;28;19941;-85
2022/08/06 09:02:04;;;;;;;;;;;18.30;79.60;;;;;;4963860;28;19930;-87
2022/08/06 09:04:35;;;;;;;;;;;18.50;78.50;;;;;;4952561;28;20354;-84
2022/08/06 09:07:03;;;;;;;;;;;18.60;79.00;;;;;;4966191;28;19931;-82
2022/08/06 09:09:40;;;;;;;;;;;18.70;78.20;;;;;;4967733;28;20014;-85
2022/08/06 09:12:27;;;;;;;;;;;18.70;77.30;;;;;;4967099;28;19934;-82
2022/08/06 09:15:01;;;;;;;;;;;18.80;77.40;;;;;;4969407;28;20348;-83
2022/08/06 09:17:30;;;;;;;;;;;18.90;77.20;;;;;;4967289;28;19934;-82
2022/08/06 09:20:18;;;;;;;;;;;18.90;76.90;;;;;;4963936;28;19934;-83
2022/08/06 09:22:50;;;;;;;;;;;19.00;75.80;;;;;;4962619;28;19931;-84
2022/08/06 09:25:35;;;;;;;;;;;19.00;74.50;;;;;;4964250;28;19934;-85
2022/08/06 09:28:28;;;;;;;;;;;19.00;75.10;;;;;;4947804;28;19926;-83
2022/08/06 09:30:57;;;;;;;;;;;19.00;75.60;;;;;;4945518;28;19930;-82
2022/08/06 09:33:26;;;;;;;;;;;19.10;75.30;;;;;;4965499;28;19945;-81
2022/08/06 09:36:14;;;;;;;;;;;19.20;75.30;;;;;;4963261;28;20305;-82
2022/08/06 09:38:58;;;;;;;;;;;19.30;72.70;;;;;;4965101;28;19933;-82
2022/08/06 09:41:29;;;;;;;;;;;19.30;72.40;;;;;;4946358;28;20297;-82
2022/08/06 09:43:58;;;;;;;;;;;19.40;71.50;;;;;;4948661;28;19930;-85
2022/08/06 09:46:35;;;;;;;;;;;19.40;72.70;;;;;;4959133;28;19926;-81
2022/08/06 09:49:04;;;;;;;;;;;19.40;72.40;;;;;;4966602;28;19926;-82
2022/08/06 09:52:09;;;;;;;;;;;19.50;72.60;;;;;;4954191;28;19934;-85
2022/08/06 09:54:40;;;;;;;;;;;19.50;72.10;;;;;;4950649;28;19977;-81
2022/08/06 09:57:09;;;;;;;;;;;19.70;72.20;;;;;;4947390;28;20819;-87
2022/08/06 09:59:44;;;;;;;;;;;19.80;72.40;;;;;;4966941;28;19961;-84
2022/08/06 10:02:17;;;;;;;;;;;19.90;71.60;;;;;;4965021;28;20420;-82
2022/08/06 10:04:51;;;;;;;;;;;20.00;71.80;;;;;;4963076;28;19926;-85
2022/08/06 10:07:30;;;;;;;;;;;20.00;71.70;;;;;;4968398;28;19937;-84
2022/08/06 10:10:07;;;;;;;;;;;20.20;70.20;;;;;;4972221;28;20653;-83
2022/08/06 10:12:35;;;;;;;;;;;20.40;70.60;;;;;;4971997;28;20373;-87
2022/08/06 10:15:04;;;;;;;;;;;20.50;69.20;;;;;;4971251;28;20271;-87
2022/08/06 10:17:45;;;;;;;;;;;20.60;69.30;;;;;;4940624;28;19936;-86
2022/08/06 10:20:22;;;;;;;;;;;20.80;68.70;;;;;;4976287;28;19930;-86
2022/08/06 10:22:53;;;;;;;;;;;20.90;68.90;;;;;;4978268;28;19926;-86
2022/08/06 10:25:24;;;;;;;;;;;20.90;67.70;;;;;;4974884;28;19926;-84
2022/08/06 10:27:57;;;;;;;;;;;20.90;67.50;;;;;;4966710;28;19942;-85
2022/08/06 10:30:30;;;;;;;;;;;21.00;67.20;;;;;;4953787;28;19926;-87
2022/08/06 10:33:05;;;;;;;;;;;21.70;67.90;;;;;;4954440;28;19933;-91
2022/08/06 10:35:45;;;;;;;;;;;21.10;67.70;;;;;;4971813;28;19933;-86
2022/08/06 10:38:20;;;;;;;;;;;21.50;66.70;;;;;;4949401;28;20537;-89
2022/08/06 10:41:11;;;;;;;;;;;21.30;65.40;;;;;;4938700;29;19938;-87
2022/08/06 10:43:59;;;;;;;;;;;21.40;67.10;;;;;;4978509;28;20026;-88
2022/08/06 10:46:35;;;;;;;;;;;21.50;66.00;;;;;;4979588;28;19926;-84
2022/08/06 10:49:05;;;;;;;;;;;21.50;65.90;;;;;;4958784;28;19937;-89
2022/08/06 10:51:53;;;;;;;;;;;21.60;66.10;;;;;;4944846;28;19933;-84
2022/08/06 10:54:26;;;;;;;;;;;21.70;65.80;;;;;;4971026;28;19932;-85
2022/08/06 10:56:54;;;;;;;;;;;21.80;65.90;;;;;;4968922;28;19926;-86
2022/08/06 10:59:22;;;;;;;;;;;21.90;64.80;;;;;;4969698;28;19930;-84
2022/08/06 11:02:18;;;;;;;;;;;21.90;64.50;;;;;;4951193;28;20481;-86
2022/08/06 11:05:00;;;;;;;;;;;21.90;65.40;;;;;;4963259;28;19926;-90
2022/08/06 11:08:02;;;;;;;;;;;21.90;65.30;;;;;;4947191;28;20038;-85
2022/08/06 11:10:59;;;;;;;;;;;22.00;65.60;;;;;;4951937;28;19934;-84
2022/08/06 11:13:47;;;;;;;;;;;22.10;64.10;;;;;;4982048;28;19948;-88
2022/08/06 11:16:24;;;;;;;;;;;22.20;62.90;;;;;;4967751;28;20313;-84
2022/08/06 11:18:59;;;;;;;;;;;22.20;64.50;;;;;;4961365;28;19963;-85
2022/08/06 11:21:37;;;;;;;;;;;22.30;64.00;;;;;;4959184;28;20631;-85
2022/08/06 11:24:25;;;;;;;;;;;22.40;64.30;;;;;;4949399;28;20345;-89
2022/08/06 11:26:53;;;;;;;;;;;22.60;64.40;;;;;;4966006;28;20252;-85
2022/08/06 11:29:28;;;;;;;;;;;22.70;63.50;;;;;;4960726;28;19926;-84
2022/08/06 11:32:45;;;;;;;;;;;22.70;62.70;;;;;;4943519;28;19930;-85
2022/08/06 11:35:32;;;;;;;;;;;22.70;63.10;;;;;;4948774;28;20369;-89
2022/08/06 11:38:06;;;;;;;;;;;22.80;63.50;;;;;;4971989;28;19937;-86
2022/08/06 11:40:56;;;;;;;;;;;22.90;61.40;;;;;;4951255;28;19927;-84
2022/08/06 11:43:38;;;;;;;;;;;23.00;62.00;;;;;;4949031;28;19926;-85
2022/08/06 11:46:30;;;;;;;;;;;23.10;61.70;;;;;;4961659;28;19926;-87
2022/08/06 11:49:15;;;;;;;;;;;23.30;62.10;;;;;;4957693;28;20008;-86
2022/08/06 11:51:56;;;;;;;;;;;23.40;61.30;;;;;;4956683;28;20724;-86
2022/08/06 11:54:57;;;;;;;;;;;23.50;61.30;;;;;;4969700;28;19930;-86
2022/08/06 11:57:24;;;;;;;;;;;23.60;61.00;;;;;;4953720;28;19933;-85
2022/08/06 12:00:14;;;;;;;;;;;23.60;61.50;;;;;;4961490;28;19926;-92
2022/08/06 12:02:46;;;;;;;;;;;23.60;60.90;;;;;;4957418;28;19927;-84
2022/08/06 12:05:13;;;;;;;;;;;23.60;60.00;;;;;;4949231;29;19945;-85
2022/08/06 12:07:45;;;;;;;;;;;23.60;60.10;;;;;;4962492;28;19930;-86
2022/08/06 12:10:19;;;;;;;;;;;23.70;59.50;;;;;;4987962;28;19934;-85
2022/08/06 12:12:56;;;;;;;;;;;23.80;60.00;;;;;;4977553;28;19930;-85
2022/08/06 12:15:26;;;;;;;;;;;23.80;59.00;;;;;;4971008;28;19997;-85
2022/08/06 12:18:13;;;;;;;;;;;23.80;59.90;;;;;;4971195;28;19930;-85
2022/08/06 12:20:49;;;;;;;;;;;24.00;60.10;;;;;;4969522;28;19930;-86
2022/08/06 12:23:22;;;;;;;;;;;24.10;60.10;;;;;;4972465;28;19933;-89
2022/08/06 12:26:12;;;;;;;;;;;24.20;60.90;;;;;;4971451;28;19926;-88
2022/08/06 12:28:41;;;;;;;;;;;24.30;59.50;;;;;;4970268;28;19926;-85
2022/08/06 12:31:10;;;;;;;;;;;24.40;58.20;;;;;;4952101;28;20290;-85
2022/08/06 12:33:58;;;;;;;;;;;24.50;58.90;;;;;;4971065;28;20270;-86
2022/08/06 12:36:30;;;;;;;;;;;24.60;58.30;;;;;;4951943;28;20305;-87
2022/08/06 12:39:04;;;;;;;;;;;24.80;57.60;;;;;;4973249;28;19941;-84
2022/08/06 12:41:45;;;;;;;;;;;24.90;56.70;;;;;;4966981;28;19937;-84
2022/08/06 12:44:15;;;;;;;;;;;25.00;57.20;;;;;;4972122;28;19930;-92
2022/08/06 12:47:12;;;;;;;;;;;25.10;57.30;;;;;;4951397;28;19945;-92
2022/08/06 12:49:40;;;;;;;;;;;25.20;56.40;;;;;;4936711;28;19926;-89
2022/08/06 12:52:12;;;;;;;;;;;25.30;55.70;;;;;;4948265;28;20355;-88
2022/08/06 12:54:40;;;;;;;;;;;25.40;55.60;;;;;;4959719;28;20293;-87
2022/08/06 12:57:18;;;;;;;;;;;25.40;56.10;;;;;;4959052;28;19930;-87
2022/08/06 12:59:56;;;;;;;;;;;25.50;55.40;;;;;;4976833;28;20317;-87
2022/08/06 13:02:25;;;;;;;;;;;25.60;56.50;;;;;;4962616;28;20263;-89
2022/08/06 13:04:55;;;;;;;;;;;26.50;57.30;;;;;;4964741;28;19934;-88
2022/08/06 13:07:22;;;;;;;;;;;25.70;56.50;;;;;;4948994;28;19933;-88
2022/08/06 13:09:50;;;;;;;;;;;25.90;56.00;;;;;;4963710;28;20421;-85
2022/08/06 13:12:51;;;;;;;;;;;;;;;;;;;;;
2022/08/06 13:15:40;;;;;;;;;;;26.00;55.50;;;;;;4963285;28;19937;-87
2022/08/06 13:18:16;;;;;;;;;;;26.20;54.70;;;;;;4948631;28;19937;-85
2022/08/06 13:21:15;;;;;;;;;;;26.30;54.40;;;;;;4964552;28;19930;-88
2022/08/06 13:23:44;;;;;;;;;;;26.30;54.30;;;;;;4972059;28;19941;-88
2022/08/06 13:26:19;;;;;;;;;;;26.20;54.40;;;;;;4937507;28;20325;-88
2022/08/06 13:29:04;;;;;;;;;;;26.30;54.90;;;;;;4962527;28;19930;-87
2022/08/06 13:31:59;;;;;;;;;;;26.50;54.60;;;;;;4948774;28;19926;-90
2022/08/06 13:34:28;;;;;;;;;;;26.40;54.10;;;;;;4963895;28;19937;-88
2022/08/06 13:37:00;;;;;;;;;;;26.40;54.10;;;;;;4963655;28;20032;-89
2022/08/06 13:39:31;;;;;;;;;;;26.20;53.80;;;;;;4963259;28;19973;-87
2022/08/06 13:42:04;;;;;;;;;;;26.60;54.20;;;;;;4961705;28;20784;-87
2022/08/06 13:44:42;;;;;;;;;;;26.80;54.30;;;;;;4964127;28;19934;-86
2022/08/06 13:47:13;;;;;;;;;;;26.90;53.60;;;;;;4947587;28;20701;-87
2022/08/06 13:50:00;;;;;;;;;;;27.10;54.00;;;;;;4959753;28;19942;-87
2022/08/06 13:52:30;;;;;;;;;;;27.30;53.10;;;;;;4961695;28;19961;-89
2022/08/06 13:55:00;;;;;;;;;;;27.60;53.10;;;;;;4945907;28;19942;-88
2022/08/06 13:57:36;;;;;;;;;;;27.80;52.70;;;;;;4942002;28;19926;-86
2022/08/06 14:00:16;;;;;;;;;;;27.90;51.80;;;;;;4948314;28;19934;-88
2022/08/06 14:02:47;;;;;;;;;;;28.10;51.90;;;;;;4940680;28;19927;-89
2022/08/06 14:05:18;;;;;;;;;;;28.00;51.60;;;;;;4945492;28;19935;-89
2022/08/06 14:07:50;;;;;;;;;;;27.80;50.90;;;;;;4970072;28;19930;-87
2022/08/06 14:10:19;;;;;;;;;;;27.70;51.10;;;;;;4965085;28;19941;-84
2022/08/06 14:15:53;;;;;;;;;;;27.70;52.10;;;;;;4964010;28;19926;-90
2022/08/06 14:18:21;;;;;;;;;;;27.90;52.10;;;;;;4953658;28;19930;-86
2022/08/06 14:20:55;;;;;;;;;;;28.30;51.80;;;;;;4619163;28;10000093;-87
2022/08/06 14:23:23;;;;;;;;;;;28.50;51.50;;;;;;4934063;28;19927;-88
2022/08/06 14:26:07;;;;;;;;;;;28.70;50.40;;;;;;4947813;28;19934;-86
2022/08/06 14:28:40;;;;;;;;;;;29.10;51.00;;;;;;4957698;28;19929;-88
2022/08/06 14:31:28;;;;;;;;;;;29.40;50.40;;;;;;4967221;28;19930;-87
2022/08/06 14:33:56;;;;;;;;;;;29.70;50.00;;;;;;4965112;28;19953;-86
2022/08/06 14:36:28;;;;;;;;;;;29.90;50.10;;;;;;4957265;28;19926;-84
2022/08/06 14:39:00;;;;;;;;;;;30.00;49.90;;;;;;4972981;28;19941;-87
2022/08/06 14:44:54;;;;;;;;;;;30.10;49.20;;;;;;4969838;28;20302;-88
2022/08/06 14:47:23;;;;;;;;;;;30.60;49.10;;;;;;4946212;28;19934;-88
2022/08/06 14:50:18;;;;;;;;;;;30.70;49.30;;;;;;4969791;28;19953;-87
2022/08/06 14:53:04;;;;;;;;;;;31.00;49.00;;;;;;4971430;28;19926;-91
2022/08/06 14:55:33;;;;;;;;;;;31.20;48.90;;;;;;4975100;28;19940;-88
2022/08/06 14:58:02;;;;;;;;;;;31.60;48.90;;;;;;4979401;28;19936;-85
2022/08/06 15:00:36;;;;;;;;;;;31.90;47.30;;;;;;4948465;28;19948;-86
2022/08/06 15:03:05;;;;;;;;;;;31.80;48.10;;;;;;4964893;28;19933;-88
2022/08/06 15:05:34;;;;;;;;;;;31.90;48.20;;;;;;4953664;28;19937;-86
2022/08/06 15:08:22;;;;;;;;;;;32.00;48.40;;;;;;4952741;28;20370;-86
2022/08/06 15:10:51;;;;;;;;;;;32.20;47.00;;;;;;4969856;28;19934;-86
2022/08/06 15:13:21;;;;;;;;;;;32.30;47.00;;;;;;4950844;28;20333;-86
2022/08/06 15:16:05;;;;;;;;;;;32.30;47.40;;;;;;4976600;28;19937;-87
2022/08/06 15:18:54;;;;;;;;;;;32.40;46.70;;;;;;4959172;28;19953;-86
2022/08/06 15:21:42;;;;;;;;;;;32.50;46.70;;;;;;4978413;28;19926;-85
2022/08/06 15:24:22;;;;;;;;;;;32.60;46.20;;;;;;4975342;28;19934;-86
2022/08/06 15:26:52;;;;;;;;;;;32.70;46.40;;;;;;4967588;28;19930;-86
2022/08/06 15:29:26;;;;;;;;;;;32.70;44.90;;;;;;4951263;28;19930;-86